Time;durP1;ratioP1;P1;durP2;ratioP2;P2;SDS_P1;SDS_P2;PMS_P1;PMS_P2;Temp;Humidity;BMP_temperature;BMP_pressure;BME280_temperature;BME280_humidity;BME280_pressure;Samples;Min_cycle;Max_cycle;Signal;HPM_P1;HPM_P2
2021/05/11 00:02:20;;;;;;;0.80;0.60;;;;;;;33.37;13.66;97971.97;5043690;28;20494;-88
2021/05/11 00:04:46;;;;;;;1.02;0.70;;;;;;;33.47;13.63;97961.97;5050777;28;20033;-88
2021/05/11 00:07:12;;;;;;;0.77;0.50;;;;;;;33.51;13.71;97961.75;5037199;28;20029;-87
2021/05/11 00:09:38;;;;;;;0.50;0.30;;;;;;;33.85;13.18;97969.38;5035251;28;20451;-87
2021/05/11 00:12:05;;;;;;;0.50;0.40;;;;;;;34.00;12.92;97964.34;5033743;28;20044;-87
2021/05/11 00:14:31;;;;;;;1.58;0.43;;;;;;;34.03;13.14;97963.34;5046763;28;20297;-87
2021/05/11 00:16:57;;;;;;;0.85;0.55;;;;;;;34.08;12.87;97969.09;5049971;28;20029;-87
2021/05/11 00:19:25;;;;;;;1.38;0.60;;;;;;;34.01;13.24;97965.88;5040099;28;20049;-87
2021/05/11 00:21:51;;;;;;;0.95;0.40;;;;;;;34.05;12.92;97966.50;5034678;28;20412;-86
2021/05/11 00:24:17;;;;;;;0.80;0.47;;;;;;;34.13;13.08;97963.94;5032415;28;20049;-87
2021/05/11 00:26:44;;;;;;;1.40;0.70;;;;;;;33.87;13.34;97964.72;5035209;28;20026;-87
2021/05/11 00:29:10;;;;;;;0.45;0.40;;;;;;;33.49;13.70;97967.19;5049246;28;20429;-87
2021/05/11 00:31:36;;;;;;;0.80;0.50;;;;;;;33.29;14.17;97962.28;5047084;28;20059;-87
2021/05/11 00:34:02;;;;;;;0.77;0.40;;;;;;;33.48;13.82;97969.22;5039939;28;20037;-87
2021/05/11 00:36:28;;;;;;;0.60;0.45;;;;;;;33.59;13.35;97965.75;5044028;28;20038;-87
2021/05/11 00:38:54;;;;;;;1.23;0.60;;;;;;;33.67;13.71;97964.81;5035367;28;20539;-87
2021/05/11 00:41:20;;;;;;;0.82;0.47;;;;;;;33.44;13.44;97966.59;5041933;28;20076;-88
2021/05/11 00:43:47;;;;;;;0.60;0.30;;;;;;;33.74;13.28;97955.81;5038826;28;20037;-87
2021/05/11 00:46:14;;;;;;;0.80;0.60;;;;;;;33.88;13.32;97956.97;5043406;28;20072;-87
2021/05/11 00:48:41;;;;;;;0.63;0.50;;;;;;;33.36;14.05;97959.78;5045714;28;20506;-87
2021/05/11 00:51:08;;;;;;;1.67;0.57;;;;;;;33.21;14.28;97955.47;5038253;28;20250;-87
2021/05/11 00:53:37;;;;;;;0.52;0.52;;;;;;;33.21;14.08;97949.78;5053750;28;20133;-88
2021/05/11 00:56:04;;;;;;;1.42;0.60;;;;;;;33.23;13.92;97952.91;5050343;28;20028;-87
2021/05/11 00:58:31;;;;;;;1.08;0.63;;;;;;;33.07;14.01;97950.66;5037464;28;20063;-87
2021/05/11 01:00:57;;;;;;;1.40;0.50;;;;;;;33.22;13.81;97943.59;5034371;28;20029;-87
2021/05/11 01:03:23;;;;;;;0.88;0.40;;;;;;;33.33;13.68;97946.56;5043735;28;20379;-87
2021/05/11 01:05:49;;;;;;;1.35;0.50;;;;;;;33.46;13.55;97939.69;5042786;28;20080;-87
2021/05/11 01:08:16;;;;;;;0.85;0.50;;;;;;;33.59;13.81;97938.06;5035598;28;20026;-88
2021/05/11 01:10:42;;;;;;;0.73;0.43;;;;;;;33.57;13.83;97940.63;5050212;28;20183;-89
2021/05/11 01:13:08;;;;;;;0.32;0.30;;;;;;;33.58;13.57;97947.09;5044168;28;20033;-89
2021/05/11 01:15:37;;;;;;;0.40;0.40;;;;;;;33.51;13.55;97939.78;5035626;28;20037;-89
2021/05/11 01:18:13;;;;;;;1.13;0.50;;;;;;;33.57;14.33;97939.84;5041728;28;20041;-88
2021/05/11 01:20:43;;;;;;;0.77;0.45;;;;;;;33.28;14.17;97935.88;5040809;28;20098;-88
2021/05/11 01:23:34;;;;;;;1.00;0.50;;;;;;;33.27;14.01;97940.03;5051557;28;20052;-88
2021/05/11 01:26:08;;;;;;;1.77;0.50;;;;;;;32.91;14.47;97934.13;5042651;28;20172;-88
2021/05/11 01:28:50;;;;;;;0.30;0.30;;;;;;;32.68;14.40;97928.16;5035696;28;20034;-88
2021/05/11 01:31:38;;;;;;;0.65;0.45;;;;;;;32.80;14.22;97928.28;5044078;28;20036;-87
2021/05/11 01:47:53;;;;;;;1.40;0.60;;;;;;;32.28;15.14;97924.44;5048107;28;20045;-88
2021/05/11 01:50:22;;;;;;;3.83;0.65;;;;;;;32.30;14.92;97924.75;5039218;28;20048;-88
2021/05/11 01:54:04;;;;;;;2.75;0.60;;;;;;;32.09;15.17;97918.22;5045188;28;20452;-87
2021/05/11 01:56:00;;;;;;;1.30;0.80;;;;;;;31.76;15.72;97914.81;5033571;28;20124;-87
2021/05/11 02:25:07;;;;;;;1.67;0.65;;;;;;;31.50;15.67;97908.16;5048420;28;20029;-86
2021/05/11 02:27:35;;;;;;;0.68;0.45;;;;;;;31.68;15.74;97905.09;5039461;28;20021;-86
2021/05/11 02:30:02;;;;;;;0.95;0.40;;;;;;;31.84;15.35;97902.56;5049167;28;20029;-86
2021/05/11 02:32:28;;;;;;;1.08;0.43;;;;;;;32.04;15.23;97905.47;5055157;28;20033;-87
2021/05/11 02:34:55;;;;;;;1.08;0.40;;;;;;;32.14;15.13;97906.16;5046348;28;20206;-86
2021/05/11 02:37:21;;;;;;;0.50;0.50;;;;;;;32.11;15.27;97903.53;5050235;28;20123;-87
2021/05/11 02:39:47;;;;;;;0.98;0.60;;;;;;;31.84;15.56;97901.75;5046123;28;20478;-87
2021/05/11 02:42:13;;;;;;;1.15;0.55;;;;;;;31.79;15.69;97906.06;5052852;28;20455;-87
2021/05/11 02:44:42;;;;;;;1.52;0.88;;;;;;;31.66;15.55;97894.25;5046705;28;20033;-87
2021/05/11 02:47:09;;;;;;;1.73;0.50;;;;;;;30.96;16.22;97893.19;5053105;28;20051;-86
2021/05/11 02:49:38;;;;;;;3.17;0.75;;;;;;;31.32;15.80;97892.84;5051721;28;20446;-87
2021/05/11 02:52:04;;;;;;;1.33;0.40;;;;;;;31.08;16.12;97888.53;5046265;28;20037;-87
2021/05/11 02:54:31;;;;;;;0.38;0.32;;;;;;;31.67;15.30;97886.53;5035404;28;20025;-86
2021/05/11 02:56:57;;;;;;;1.05;0.40;;;;;;;32.23;14.95;97894.66;5045729;28;20103;-86
2021/05/11 02:59:23;;;;;;;0.90;0.70;;;;;;;32.40;15.05;97892.84;5048143;28;20028;-88
2021/05/11 03:01:49;;;;;;;1.60;0.65;;;;;;;32.20;15.17;97892.03;5033588;28;20064;-88
2021/05/11 03:04:15;;;;;;;2.05;0.55;;;;;;;31.98;15.56;97887.56;5045800;28;20030;-86
2021/05/11 03:06:41;;;;;;;0.50;0.45;;;;;;;31.69;15.85;97893.28;5036546;28;20498;-87
2021/05/11 03:09:07;;;;;;;0.85;0.60;;;;;;;31.35;16.10;97888.25;5042057;28;20103;-87
2021/05/11 03:11:33;;;;;;;0.57;0.50;;;;;;;31.40;15.99;97890.41;5037668;28;20037;-86
2021/05/11 03:13:59;;;;;;;0.47;0.38;;;;;;;31.43;15.79;97886.63;5039661;28;20506;-87
2021/05/11 03:16:26;;;;;;;0.75;0.50;;;;;;;31.00;16.01;97885.28;5052776;28;20127;-87
2021/05/11 03:18:52;;;;;;;0.70;0.57;;;;;;;31.09;16.11;97885.19;5048415;28;20029;-86
2021/05/11 03:21:19;;;;;;;0.80;0.60;;;;;;;31.06;16.62;97882.56;5052070;28;20387;-86
2021/05/11 03:23:45;;;;;;;0.65;0.50;;;;;;;30.60;16.93;97890.59;5052961;28;20091;-86
2021/05/11 03:26:11;;;;;;;0.50;0.50;;;;;;;30.05;17.08;97890.13;5043834;28;20037;-88
2021/05/11 03:28:37;;;;;;;1.13;0.63;;;;;;;30.39;17.11;97883.97;5038923;28;20119;-88
2021/05/11 03:31:03;;;;;;;0.93;0.65;;;;;;;30.23;17.52;97881.53;5039757;28;20059;-87
2021/05/11 03:33:29;;;;;;;0.63;0.50;;;;;;;30.00;17.87;97877.41;5050775;28;20033;-88
2021/05/11 03:35:55;;;;;;;0.80;0.50;;;;;;;30.06;17.68;97881.16;5043832;28;20029;-88
2021/05/11 03:38:21;;;;;;;0.60;0.55;;;;;;;29.43;18.12;97882.16;5042901;28;20063;-87
2021/05/11 03:40:47;;;;;;;0.52;0.43;;;;;;;29.07;18.67;97879.38;5042683;28;20033;-87
2021/05/11 03:43:20;;;;;;;0.65;0.60;;;;;;;29.39;18.56;97875.88;5043056;28;20100;-88
2021/05/11 03:45:52;;;;;;;0.90;0.50;;;;;;;30.08;17.48;97860.88;5040141;28;20041;-88
2021/05/11 03:48:18;;;;;;;0.40;0.40;;;;;;;29.73;18.05;97871.06;5046457;28;20044;-87
2021/05/11 03:50:44;;;;;;;0.60;0.50;;;;;;;30.07;17.68;97871.41;5042373;28;20057;-88
2021/05/11 03:53:11;;;;;;;0.50;0.40;;;;;;;31.26;16.94;97871.31;5036193;28;20037;-89
2021/05/11 03:55:37;;;;;;;0.90;0.55;;;;;;;31.11;16.83;97856.34;5048717;28;20036;-87
2021/05/11 03:58:03;;;;;;;0.60;0.47;;;;;;;30.80;17.38;97856.75;5040368;28;20083;-86
2021/05/11 04:00:29;;;;;;;1.00;0.40;;;;;;;31.50;16.72;97854.22;5015692;28;20411;-86
2021/05/11 04:02:55;;;;;;;0.40;0.40;;;;;;;32.16;16.04;97852.44;5044559;28;20122;-86
2021/05/11 04:05:21;;;;;;;0.45;0.40;;;;;;;32.05;16.52;97861.59;5043234;28;20038;-83
2021/05/11 04:07:51;;;;;;;0.65;0.60;;;;;;;30.95;17.65;97862.50;5044814;28;20057;-83
2021/05/11 04:10:29;;;;;;;1.15;0.60;;;;;;;31.65;17.02;97869.22;5018903;28;20498;-83
2021/05/11 04:18:06;;;;;;;0.60;0.60;;;;;;;33.28;15.58;97869.66;5048995;28;20047;-83
2021/05/11 04:20:32;;;;;;;2.30;0.60;;;;;;;33.75;15.38;97876.84;5034099;28;20516;-83
2021/05/11 04:22:58;;;;;;;1.00;0.57;;;;;;;34.36;14.42;97863.03;5032945;28;20109;-83
2021/05/11 04:25:24;;;;;;;1.23;0.70;;;;;;;34.92;14.04;97862.00;5052743;28;20033;-83
2021/05/11 04:27:50;;;;;;;1.55;0.70;;;;;;;35.03;14.65;97855.59;5038786;28;20041;-82
2021/05/11 04:30:19;;;;;;;1.17;0.40;;;;;;;34.58;14.55;97863.19;5052924;28;20033;-83
2021/05/11 04:32:45;;;;;;;0.60;0.60;;;;;;;34.82;14.63;97859.91;5047270;28;20029;-82
2021/05/11 04:35:12;;;;;;;0.98;0.60;;;;;;;34.58;15.32;97848.94;5054750;28;20040;-83
2021/05/11 04:37:38;;;;;;;0.80;0.60;;;;;;;34.71;14.89;97852.09;5033051;28;20040;-83
2021/05/11 04:40:04;;;;;;;0.77;0.40;;;;;;;34.73;14.84;97855.19;5054141;28;20131;-83
2021/05/11 04:42:31;;;;;;;0.77;0.52;;;;;;;35.10;14.19;97852.25;5051540;28;20044;-83
2021/05/11 04:44:59;;;;;;;0.57;0.45;;;;;;;33.77;15.65;97852.25;5053570;28;20040;-83
2021/05/11 04:50:12;;;;;;;0.65;0.50;;;;;;;33.31;16.07;97862.94;5058989;28;20080;-84
2021/05/11 04:52:38;;;;;;;0.82;0.52;;;;;;;34.36;15.34;97855.25;5054193;28;20065;-84
2021/05/11 04:55:05;;;;;;;0.60;0.50;;;;;;;34.11;15.20;97855.38;5053631;28;20037;-86
2021/05/11 04:57:31;;;;;;;1.40;0.43;;;;;;;34.29;15.32;97850.03;5052668;28;22744;-84
2021/05/11 05:00:01;;;;;;;0.95;0.50;;;;;;;34.43;15.24;97854.00;5044541;28;20040;-84
2021/05/11 05:02:27;;;;;;;0.50;0.50;;;;;;;34.67;14.86;97852.34;5043998;28;20452;-85
2021/05/11 05:04:53;;;;;;;1.30;0.40;;;;;;;34.52;15.24;97854.59;5029529;28;20029;-83
2021/05/11 05:07:19;;;;;;;0.68;0.50;;;;;;;34.84;14.74;97849.56;5040826;28;20109;-84
2021/05/11 05:09:45;;;;;;;2.70;0.52;;;;;;;35.02;15.38;97857.69;5051976;28;20056;-85
2021/05/11 05:12:11;;;;;;;0.43;0.40;;;;;;;34.33;16.06;97856.28;5036870;28;20040;-84
2021/05/11 05:14:37;;;;;;;0.50;0.50;;;;;;;34.67;15.48;97846.63;5036747;28;20521;-83
2021/05/11 05:17:03;;;;;;;0.50;0.40;;;;;;;35.34;15.23;97847.63;5052785;28;20064;-86
2021/05/11 05:19:29;;;;;;;0.50;0.50;;;;;;;35.69;14.28;97847.13;5056354;28;20394;-86
2021/05/11 05:21:55;;;;;;;0.55;0.55;;;;;;;35.56;14.81;97843.25;5052496;28;20029;-84
2021/05/11 05:24:45;;;;;;;0.65;0.50;;;;;;;35.18;15.58;97845.50;5049789;28;20041;-85
2021/05/11 05:27:37;;;;;;;0.55;0.52;;;;;;;35.04;16.24;97837.16;5049383;28;20033;-85
2021/05/11 05:29:56;;;;;;;0.40;0.40;;;;;;;35.38;15.19;97844.50;5042254;28;20056;-84
2021/05/11 05:32:22;;;;;;;1.25;0.43;;;;;;;34.62;15.84;97835.19;5053466;28;20044;-83
2021/05/11 05:34:48;;;;;;;0.60;0.45;;;;;;;34.00;16.39;97834.03;5050531;28;20037;-84
2021/05/11 05:37:14;;;;;;;0.30;0.20;;;;;;;34.39;16.73;97840.00;5048282;28;20090;-84
2021/05/11 05:39:43;;;;;;;0.60;0.40;;;;;;;34.53;16.49;97838.28;5044126;28;20037;-83
2021/05/11 05:42:09;;;;;;;0.65;0.40;;;;;;;34.54;16.66;97837.75;5051881;28;20044;-83
2021/05/11 05:44:35;;;;;;;0.43;0.30;;;;;;;35.53;16.32;97847.13;5054731;28;20522;-83
2021/05/11 05:47:02;;;;;;;1.60;0.40;;;;;;;36.13;15.11;97834.13;5035170;28;20039;-83
2021/05/11 05:49:42;;;;;;;0.32;0.30;;;;;;;35.55;15.42;97845.31;5049582;28;20038;-83
2021/05/11 05:52:14;;;;;;;0.75;0.50;;;;;;;34.91;15.47;97837.66;5041682;28;20029;-85
2021/05/11 05:54:40;;;;;;;0.93;0.40;;;;;;;35.79;16.07;97836.22;5054657;28;20037;-83
2021/05/11 05:57:06;;;;;;;0.93;0.45;;;;;;;36.40;15.02;97834.06;5054560;28;20028;-84
2021/05/11 05:59:39;;;;;;;0.65;0.45;;;;;;;35.25;15.63;97824.22;5054461;28;20035;-84
2021/05/11 06:02:05;;;;;;;0.65;0.57;;;;;;;35.91;16.78;97832.84;5054720;28;20043;-85
2021/05/11 06:04:31;;;;;;;1.45;0.47;;;;;;;36.30;15.65;97821.34;5054706;28;20029;-84
2021/05/11 06:06:57;;;;;;;0.60;0.40;;;;;;;36.29;14.83;97821.88;5054646;28;20029;-85
2021/05/11 06:09:23;;;;;;;2.85;0.50;;;;;;;36.20;14.93;97814.34;5042574;28;20033;-85
2021/05/11 06:17:36;;;;;;;0.40;0.40;;;;;;;36.62;15.35;97824.63;5054427;28;20037;-84
2021/05/11 06:20:03;;;;;;;0.82;0.55;;;;;;;36.54;15.65;97824.41;5053083;28;20417;-84
2021/05/11 06:22:29;;;;;;;0.50;0.50;;;;;;;36.17;15.57;97820.34;5050560;28;20065;-83
2021/05/11 06:24:56;;;;;;;0.88;0.52;;;;;;;36.30;16.04;97811.97;5048770;28;20045;-84
2021/05/11 06:27:22;;;;;;;0.95;0.55;;;;;;;36.67;16.01;97812.38;5052472;28;20036;-84
2021/05/11 06:29:52;;;;;;;0.90;0.47;;;;;;;37.30;15.49;97815.94;5054144;28;20032;-84
2021/05/11 06:32:18;;;;;;;0.55;0.45;;;;;;;37.70;14.73;97805.75;5053885;28;20029;-84
2021/05/11 06:34:48;;;;;;;0.90;0.40;;;;;;;36.90;15.20;97801.63;5053562;28;20033;-84
2021/05/11 06:37:14;;;;;;;1.23;0.75;;;;;;;35.78;15.43;97794.69;5045662;28;20095;-84
2021/05/11 06:39:44;;;;;;;0.30;0.30;;;;;;;36.61;16.26;97808.78;5034195;28;20099;-84
2021/05/11 06:42:10;;;;;;;0.50;0.40;;;;;;;37.84;14.44;97807.47;5040949;28;20033;-84
2021/05/11 06:55:00;;;;;;;0.47;0.35;;;;;;;38.97;13.88;97799.91;5052543;28;20037;-84
2021/05/11 06:57:28;;;;;;;1.58;0.40;;;;;;;38.72;14.47;97801.31;5052641;28;20041;-84
2021/05/11 06:59:54;;;;;;;0.38;0.30;;;;;;;38.31;14.58;97810.91;5035849;28;20492;-85
2021/05/11 07:02:20;;;;;;;0.65;0.40;;;;;;;39.02;15.33;97799.06;5044845;28;20080;-85
2021/05/11 07:04:53;;;;;;;1.00;0.40;;;;;;;39.38;13.83;97800.34;5033591;28;20033;-85
2021/05/11 07:07:21;;;;;;;0.35;0.30;;;;;;;39.70;12.81;97795.41;5035688;28;20037;-85
2021/05/11 07:14:59;;;;;;;1.25;0.68;;;;;;;36.85;16.15;97794.63;5034077;28;20055;-85
2021/05/11 07:17:26;;;;;;;0.50;0.50;;;;;;;36.92;16.27;97801.88;5047689;28;20034;-85
2021/05/11 07:19:53;;;;;;;0.60;0.40;;;;;;;37.81;16.08;97794.16;5042605;28;20083;-85
2021/05/11 07:22:19;;;;;;;0.95;0.45;;;;;;;38.90;14.90;97792.72;5033310;28;20064;-84
2021/05/11 07:24:49;;;;;;;0.75;0.40;;;;;;;39.30;14.80;97790.84;5041697;28;20096;-85
2021/05/11 07:27:32;;;;;;;0.30;0.30;;;;;;;39.29;13.96;97781.44;5037553;28;20045;-84
2021/05/11 07:30:15;;;;;;;1.85;0.70;;;;;;;39.03;14.12;97789.13;5048993;28;20060;-85
2021/05/11 07:32:42;;;;;;;0.52;0.30;;;;;;;37.93;13.74;97786.25;5049392;28;20029;-85
2021/05/11 07:35:09;;;;;;;0.45;0.40;;;;;;;38.75;14.06;97780.13;5052988;28;20056;-84
2021/05/11 07:37:35;;;;;;;0.57;0.40;;;;;;;39.32;13.18;97782.44;5052847;28;20029;-84
2021/05/11 07:40:01;;;;;;;0.68;0.40;;;;;;;39.79;12.46;97774.88;5047508;28;20111;-84
2021/05/11 07:42:27;;;;;;;0.65;0.40;;;;;;;39.61;13.78;97775.69;5051397;28;20025;-84
2021/05/11 07:44:58;;;;;;;0.50;0.30;;;;;;;39.52;13.09;97775.31;5050797;28;20049;-84
2021/05/11 07:47:35;;;;;;;0.75;0.32;;;;;;;39.59;12.29;97775.47;5053246;28;20076;-84
2021/05/11 07:50:17;;;;;;;0.25;0.25;;;;;;;38.72;13.52;97781.22;5050945;28;20033;-84
2021/05/11 08:09:50;;;;;;;0.32;0.25;;;;;;;36.82;15.32;97772.00;5057138;28;20433;-85
2021/05/11 08:16:56;;;;;;;0.85;0.43;;;;;;;36.66;14.83;97770.78;5037225;28;20434;-85
2021/05/11 08:22:20;;;;;;;0.30;0.30;;;;;;;36.02;14.91;97758.53;5036711;28;20049;-85
2021/05/11 08:30:17;;;;;;;1.02;0.40;;;;;;;37.15;15.64;97754.63;5018802;28;20044;-85
2021/05/11 08:32:43;;;;;;;0.47;0.30;;;;;;;38.51;13.53;97758.75;5053451;28;20043;-85
2021/05/11 08:35:09;;;;;;;0.57;0.45;;;;;;;38.53;14.25;97756.09;5039414;28;20041;-86
2021/05/11 08:37:35;;;;;;;0.30;0.30;;;;;;;38.06;15.19;97752.00;5043586;28;20037;-85
2021/05/11 08:40:02;;;;;;;0.77;0.40;;;;;;;36.38;16.08;97758.66;5043477;28;20033;-86
2021/05/11 08:42:31;;;;;;;0.82;0.40;;;;;;;37.52;15.95;97759.81;5046992;28;20056;-85
2021/05/11 08:45:09;;;;;;;0.90;0.40;;;;;;;39.27;14.59;97751.69;5055971;28;20466;-86
2021/05/11 08:47:54;;;;;;;0.60;0.30;;;;;;;40.19;13.67;97763.44;5055462;28;20029;-85
2021/05/11 08:50:32;;;;;;;0.43;0.40;;;;;;;39.32;14.08;97760.25;5056016;28;20109;-85
2021/05/11 09:27:00;;;;;;;0.57;0.30;;;;;;;42.21;12.41;97746.06;5053593;28;20039;-84
2021/05/11 09:54:48;;;;;;;0.20;0.10;;;;;;;42.63;10.30;97733.00;5044417;28;20053;-85
2021/05/11 10:11:45;;;;;;;0.30;0.20;;;;;;;42.64;11.07;97699.13;5045266;28;20106;-85
2021/05/11 10:48:40;;;;;;;0.30;0.25;;;;;;;42.60;11.69;97675.63;5099978;28;20071;-84
2021/05/11 10:51:17;;;;;;;0.30;0.20;;;;;;;42.50;12.44;97681.16;5098735;28;20090;-83
2021/05/11 10:53:46;;;;;;;0.30;0.30;;;;;;;41.57;11.22;97691.13;5100788;28;20689;-83
2021/05/11 10:56:43;;;;;;;0.20;0.13;;;;;;;41.83;12.64;97679.41;5098221;28;20390;-83
2021/05/11 11:01:54;;;;;;;1.27;0.20;;;;;;;42.52;12.33;97666.94;5102552;28;20035;-82
2021/05/11 11:04:23;;;;;;;1.45;0.70;;;;;;;41.48;12.30;97667.78;5105293;28;20027;-83
2021/05/11 11:07:00;;;;;;;0.30;0.20;;;;;;;41.64;12.27;97681.00;5108932;28;20115;-83
2021/05/11 11:09:34;;;;;;;0.20;0.20;;;;;;;42.54;11.81;97669.25;5107736;28;20378;-83
2021/05/11 11:12:03;;;;;;;0.52;0.20;;;;;;;43.34;11.45;97679.28;5106353;28;20032;-83
2021/05/11 11:14:38;;;;;;;1.00;0.20;;;;;;;43.79;11.80;97664.81;5110133;28;20026;-83
2021/05/11 11:17:09;;;;;;;0.22;0.22;;;;;;;43.29;10.85;97660.00;5105247;28;20056;-82
2021/05/11 11:19:36;;;;;;;0.40;0.40;;;;;;;41.84;11.17;97662.91;5102182;28;20144;-85
2021/05/11 11:24:57;;;;;;;0.28;0.20;;;;;;;41.47;12.51;97661.28;5103138;28;20051;-85
2021/05/11 11:27:27;;;;;;;0.52;0.30;;;;;;;42.25;13.17;97653.31;5106079;28;20478;-84
2021/05/11 11:30:08;;;;;;;0.30;0.30;;;;;;;43.20;11.89;97651.88;5092863;28;20152;-85
2021/05/11 11:32:35;;;;;;;0.30;0.25;;;;;;;43.40;12.05;97648.06;5094393;28;20496;-84
2021/05/11 11:35:02;;;;;;;0.22;0.20;;;;;;;43.71;11.93;97645.94;5092228;28;20134;-84
2021/05/11 11:37:30;;;;;;;1.30;0.20;;;;;;;44.13;12.36;97649.13;5090286;28;20087;-83
2021/05/11 11:39:59;;;;;;;0.20;0.13;;;;;;;44.38;10.13;97641.31;5093706;28;20233;-83
2021/05/11 11:42:37;;;;;;;0.55;0.30;;;;;;;44.81;10.32;97640.13;5087997;28;20036;-83
2021/05/11 11:45:06;;;;;;;0.20;0.20;;;;;;;43.87;10.01;97639.53;5086144;28;20518;-83
2021/05/11 11:47:41;;;;;;;0.70;0.20;;;;;;;43.01;10.65;97634.16;5088037;28;20082;-82
2021/05/11 11:50:10;;;;;;;1.45;0.15;;;;;;;43.10;11.65;97630.69;5088480;28;20032;-82
2021/05/11 11:55:16;;;;;;;0.10;0.10;;;;;;;43.18;11.94;97622.78;5090728;28;20043;-83
2021/05/11 11:57:57;;;;;;;0.30;0.20;;;;;;;41.51;12.25;97629.19;5088935;28;20450;-82
2021/05/11 12:00:24;;;;;;;1.13;0.30;;;;;;;41.15;12.61;97618.31;5087110;28;20039;-83
2021/05/11 12:03:11;;;;;;;0.70;0.30;;;;;;;41.21;12.80;97618.97;5096007;28;20483;-82
2021/05/11 12:05:50;;;;;;;0.30;0.20;;;;;;;41.89;11.93;97615.81;5092969;28;20028;-85
2021/05/11 12:08:22;;;;;;;1.30;0.50;;;;;;;41.68;12.70;97613.00;5084111;28;20507;-87
2021/05/11 12:10:52;;;;;;;0.35;0.20;;;;;;;40.30;12.54;97607.81;5093314;28;20654;-86
2021/05/11 12:13:21;;;;;;;1.55;0.10;;;;;;;41.04;13.37;97607.09;5089186;28;20028;-86
2021/05/11 12:16:17;;;;;;;0.77;0.40;;;;;;;41.58;12.04;97600.41;5101425;28;20036;-85
2021/05/11 12:19:11;;;;;;;1.00;0.30;;;;;;;40.85;12.43;97603.66;5083524;28;20499;-85
2021/05/11 12:22:04;;;;;;;0.40;0.38;;;;;;;39.61;12.36;97606.09;5091109;28;20558;-84
2021/05/11 12:24:34;;;;;;;1.55;0.40;;;;;;;40.90;12.78;97596.97;5087521;28;20217;-84
2021/05/11 12:27:37;;;;;;;0.85;0.43;;;;;;;41.22;13.21;97600.31;5081773;28;20043;-84
2021/05/11 12:30:10;;;;;;;1.05;0.28;;;;;;;41.95;12.64;97596.22;5082602;28;20101;-84
2021/05/11 12:32:37;;;;;;;0.90;0.30;;;;;;;41.02;11.91;97595.34;5093397;28;20493;-84
2021/05/11 12:35:11;;;;;;;0.57;0.20;;;;;;;40.93;13.44;97587.22;5097638;28;20036;-84
2021/05/11 12:37:53;;;;;;;0.65;0.28;;;;;;;39.59;14.18;97585.00;5093751;28;20107;-84
2021/05/11 12:40:31;;;;;;;2.05;0.38;;;;;;;39.10;13.92;97575.94;5085382;28;20376;-84
2021/05/11 12:43:02;;;;;;;0.47;0.43;;;;;;;40.89;13.32;97575.25;5092775;28;20036;-84
2021/05/11 12:45:35;;;;;;;1.33;0.40;;;;;;;42.11;12.32;97577.66;5090280;28;20039;-83
2021/05/11 12:48:03;;;;;;;1.85;0.30;;;;;;;41.54;12.00;97573.28;5091508;28;20032;-87
2021/05/11 12:50:33;;;;;;;1.05;0.43;;;;;;;40.26;13.29;97576.47;5091744;28;20479;-85
2021/05/11 12:53:30;;;;;;;0.63;0.30;;;;;;;41.37;12.39;97567.97;5089741;28;20518;-86
2021/05/11 12:56:21;;;;;;;0.75;0.20;;;;;;;42.76;12.08;97561.66;5091303;28;20031;-87
2021/05/11 12:59:10;;;;;;;0.80;0.17;;;;;;;42.17;11.99;97555.19;5087426;28;20035;-86
2021/05/11 13:30:56;;;;;;;1.27;0.20;;;;;;;43.05;10.12;97513.94;5090888;28;20036;-88
2021/05/11 13:33:31;;;;;;;0.22;0.20;;;;;;;42.35;10.64;97507.88;5091207;28;20024;-89
2021/05/11 13:35:58;;;;;;;0.20;0.20;;;;;;;41.80;11.87;97512.50;5090565;28;20521;-86
2021/05/11 13:38:24;;;;;;;2.42;0.40;;;;;;;40.49;12.15;97519.22;5090850;28;20028;-87
2021/05/11 13:40:51;;;;;;;1.27;0.40;;;;;;;40.79;12.44;97522.38;5091527;28;20032;-87
2021/05/11 13:43:19;;;;;;;0.55;0.30;;;;;;;41.49;11.31;97510.78;5088238;28;20506;-87
2021/05/11 13:45:45;;;;;;;0.10;0.10;;;;;;;42.55;12.33;97506.97;5087151;28;20032;-88
2021/05/11 13:53:12;;;;;;;0.47;0.20;;;;;;;43.04;11.49;97500.81;5089299;28;20131;-85
2021/05/11 14:04:01;;;;;;;0.30;0.25;;;;;;;42.03;12.15;97487.41;5088642;28;20044;-82
2021/05/11 14:06:27;;;;;;;0.20;0.15;;;;;;;42.65;10.98;97493.50;5090756;28;20036;-82
2021/05/11 14:08:54;;;;;;;0.20;0.20;;;;;;;42.72;11.69;97485.41;5088945;28;20117;-82
2021/05/11 14:11:21;;;;;;;0.20;0.20;;;;;;;42.53;10.79;97483.69;5083092;28;20036;-82
2021/05/11 14:13:47;;;;;;;0.10;0.10;;;;;;;42.40;12.03;97472.28;5090961;28;20047;-82
2021/05/11 14:16:13;;;;;;;2.17;0.17;;;;;;;42.94;10.83;97476.00;5089706;28;20044;-83
2021/05/11 14:18:39;;;;;;;0.52;0.20;;;;;;;43.24;10.49;97473.81;5089175;28;20029;-83
2021/05/11 14:21:06;;;;;;;1.08;0.20;;;;;;;43.43;10.70;97461.06;5088196;28;20107;-82
2021/05/11 14:23:32;;;;;;;0.20;0.10;;;;;;;43.74;11.02;97459.63;5092437;28;20103;-82
2021/05/11 14:25:59;;;;;;;0.15;0.15;;;;;;;44.00;10.81;97456.19;5089651;28;20120;-82
2021/05/11 14:28:25;;;;;;;0.22;0.20;;;;;;;42.98;11.27;97456.16;5086905;28;20042;-82
2021/05/11 14:30:51;;;;;;;0.20;0.10;;;;;;;43.36;10.53;97448.19;5085088;28;20040;-82
2021/05/11 14:33:17;;;;;;;0.20;0.10;;;;;;;43.70;10.38;97444.78;5085275;28;20042;-83
2021/05/11 14:35:43;;;;;;;1.45;0.30;;;;;;;43.98;10.36;97450.22;5081588;28;20043;-82
2021/05/11 14:38:10;;;;;;;0.20;0.10;;;;;;;44.46;10.17;97445.88;5087566;28;20028;-88
2021/05/11 14:40:36;;;;;;;0.17;0.17;;;;;;;44.96;9.79;97445.84;5086958;28;20025;-87
2021/05/11 14:43:02;;;;;;;0.10;0.10;;;;;;;45.28;10.17;97442.84;5090605;28;20395;-88
2021/05/11 14:45:31;;;;;;;0.70;0.10;;;;;;;44.98;10.26;97438.09;5081441;28;20032;-88
2021/05/11 14:47:58;;;;;;;0.10;0.10;;;;;;;44.88;9.76;97442.28;5080505;28;20036;-87
2021/05/11 14:50:25;;;;;;;0.40;0.10;;;;;;;44.46;9.97;97437.19;5082950;28;20035;-88
2021/05/11 14:52:54;;;;;;;0.38;0.38;;;;;;;43.76;10.20;97437.41;5080263;28;20548;-88
2021/05/11 14:55:24;;;;;;;0.22;0.22;;;;;;;43.79;11.45;97439.16;5079053;28;20036;-88
2021/05/11 14:57:51;;;;;;;0.75;0.28;;;;;;;44.05;11.57;97431.28;5073907;28;20044;-87
2021/05/11 15:00:18;;;;;;;0.10;0.10;;;;;;;44.62;10.51;97429.16;5073960;28;20028;-83
2021/05/11 15:02:44;;;;;;;0.85;0.20;;;;;;;44.88;11.00;97428.56;5082396;28;20090;-84
2021/05/11 15:05:11;;;;;;;0.45;0.20;;;;;;;42.86;11.58;97423.19;5094017;28;20028;-82
2021/05/11 15:07:37;;;;;;;0.77;0.35;;;;;;;41.81;13.16;97419.63;5087375;28;20059;-84
2021/05/11 15:10:04;;;;;;;4.68;0.32;;;;;;;41.98;11.93;97410.44;5090200;28;20035;-83
2021/05/11 15:12:30;;;;;;;1.00;0.30;;;;;;;41.29;12.52;97412.31;5092648;28;20040;-84
2021/05/11 15:14:56;;;;;;;2.05;0.30;;;;;;;41.72;12.36;97413.66;5089853;28;20368;-84
2021/05/11 15:19:51;;;;;;;0.57;0.20;;;;;;;41.28;11.99;97402.13;5092724;28;20119;-82
2021/05/11 15:22:20;;;;;;;0.60;0.20;;;;;;;40.57;12.86;97399.91;5087425;28;20044;-83
2021/05/11 15:24:47;;;;;;;0.30;0.30;;;;;;;41.63;12.19;97399.75;5085688;28;20541;-85
2021/05/11 15:27:14;;;;;;;1.35;0.30;;;;;;;41.14;12.52;97397.81;5086145;28;20028;-85
2021/05/11 15:29:40;;;;;;;0.80;0.32;;;;;;;42.15;12.82;97395.50;5086027;28;20054;-85
2021/05/11 15:32:36;;;;;;;0.43;0.20;;;;;;;41.94;11.63;97389.88;5088868;28;20066;-84
2021/05/11 15:35:02;;;;;;;0.63;0.30;;;;;;;40.31;13.08;97390.69;5087346;28;20032;-85
2021/05/11 15:37:28;;;;;;;1.58;0.30;;;;;;;39.73;13.62;97385.28;5092773;28;20509;-84
2021/05/11 15:39:55;;;;;;;0.20;0.20;;;;;;;39.93;13.09;97384.56;5092526;28;20082;-84
2021/05/11 15:42:21;;;;;;;0.60;0.43;;;;;;;39.95;13.25;97382.66;5086022;28;20032;-84
2021/05/11 15:44:47;;;;;;;0.47;0.20;;;;;;;40.77;12.17;97378.19;5086664;28;20064;-84
2021/05/11 15:47:13;;;;;;;0.50;0.30;;;;;;;41.46;11.97;97371.44;5088325;28;20036;-84
2021/05/11 15:49:43;;;;;;;0.20;0.20;;;;;;;42.64;11.78;97372.81;5084447;28;20032;-84
2021/05/11 15:52:09;;;;;;;0.68;0.30;;;;;;;43.21;11.29;97364.38;5084032;28;20032;-86
2021/05/11 15:54:36;;;;;;;0.70;0.50;;;;;;;42.78;11.34;97379.13;5086791;28;20036;-84
2021/05/11 15:57:02;;;;;;;1.45;0.30;;;;;;;42.50;11.23;97363.56;5082245;28;20081;-83
2021/05/11 15:59:28;;;;;;;0.50;0.30;;;;;;;42.41;11.30;97364.13;5081729;28;20047;-82
2021/05/11 16:01:55;;;;;;;0.10;0.10;;;;;;;42.55;11.44;97356.81;5082280;28;20438;-83
2021/05/11 16:04:24;;;;;;;0.63;0.20;;;;;;;42.66;11.33;97349.88;5080544;28;20035;-82
2021/05/11 16:06:50;;;;;;;0.15;0.15;;;;;;;42.74;10.90;97359.28;5082585;28;20070;-83